AKDT,Max TemperatureF,Mean TemperatureF,Min TemperatureF,Max Dew PointF,MeanDew PointF,Min DewpointF,Max Humidity, Mean Humidity, Min Humidity, Max Sea Level PressureIn, Mean Sea Level PressureIn, Min Sea Level PressureIn, Max VisibilityMiles, Mean VisibilityMiles, Min VisibilityMiles, Max Wind SpeedMPH, Mean Wind SpeedMPH, Max Gust SpeedMPH,PrecipitationIn, CloudCover, Events, WindDirDegrees
2014-3-1,44,42,39,33,32,29,79,70,54,29.70,29.66,29.61,10,10,10,36,23,48,0.00,6,,90
2014-3-2,46,39,32,33,31,26,75,67,54,29.77,29.67,29.61,10,10,10,28,10,36,0.00,6,,106
2014-3-3,43,39,35,30,28,27,82,66,40,29.84,29.80,29.76,10,10,10,18,8,22,0.00,8,,70
2014-3-4,40,37,33,31,28,25,87,72,50,29.84,29.80,29.74,10,10,10,9,5,13,0.00,8,,26
2014-3-5,41,36,30,33,30,28,96,83,67,29.73,29.61,29.53,10,10,2,10,4,12,T,7,,43
2014-3-6,42,38,33,32,31,29,93,83,67,29.52,29.45,29.39,10,8,2,22,11,25,0.04,8,Rain-Snow,29
2014-3-7,43,38,32,31,29,26,88,75,48,29.42,29.38,29.34,10,10,9,18,6,24,T,7,Snow,23
2014-3-8,35,31,27,28,26,24,88,77,66,29.34,29.28,29.25,10,9,2,15,8,18,0.03,7,Snow,317
2014-3-9,38,34,29,29,26,23,86,74,57,29.26,29.05,28.77,10,9,2,14,10,16,T,8,Snow,80
2014-3-10,36,32,28,34,29,24,93,86,79,29.02,28.82,28.70,10,6,1,32,19,40,0.05,8,Rain-Snow,329
2014-3-11,28,20,11,25,18,11,93,75,44,29.40,29.24,29.05,10,4,0,28,17,32,0.03,8,Snow,297
2014-3-12,27,19,10,23,18,7,93,80,46,29.38,29.03,28.92,10,2,0,41,26,49,0.08,7,Fog-Snow,7
2014-3-13,22,20,17,18,12,8,93,74,56,29.46,29.31,29.06,10,2,0,33,24,40,0.03,7,Fog-Snow,317
2014-3-14,24,21,17,18,13,4,86,73,49,29.71,29.56,29.45,10,4,0,29,17,33,0.07,7,Snow,291
2014-3-15,36,23,10,32,20,6,93,79,59,29.79,29.57,28.93,10,4,0,52,21,61,0.14,7,Fog-Snow,174
2014-3-16,43,39,34,37,31,27,100,78,54,29.31,29.08,28.88,10,8,1,40,18,48,0.07,7,Rain-Snow,203
2014-3-17,41,34,27,33,27,18,89,73,58,29.98,29.56,29.32,10,8,1,38,22,45,0.01,7,Rain-Snow,257
2014-3-18,33,26,18,21,16,11,81,63,43,30.35,30.22,30.02,10,9,2,28,17,34,T,6,Snow,328
2014-3-19,39,27,15,28,22,10,78,65,46,30.25,30.10,29.96,10,10,10,32,16,38,0.00,5,,136
2014-3-20,44,40,35,31,29,26,82,68,51,29.96,29.90,29.86,10,10,10,21,10,27,0.00,7,,135
2014-3-21,44,40,36,32,30,28,76,69,54,30.04,29.98,29.95,10,10,10,20,10,25,0.00,8,,114
2014-3-22,44,36,28,36,32,25,89,78,58,30.06,30.03,30.01,10,10,7,23,8,27,0.00,7,Rain,20
2014-3-23,41,40,38,36,35,34,87,82,72,30.04,30.00,29.96,10,10,7,28,14,34,0.10,8,Rain,131
2014-3-24,42,41,39,34,33,31,86,76,64,30.06,30.04,30.01,10,10,8,39,21,44,T,8,Rain-Snow,146
2014-3-25,39,37,34,32,30,27,92,85,60,30.04,29.97,29.92,10,6,2,20,9,23,0.09,8,Snow,289
2014-3-26,38,35,32,33,30,26,89,81,70,30.04,29.98,29.92,10,7,1,16,11,19,0.01,8,Snow,312
2014-3-27,43,37,31,33,29,27,89,74,43,30.11,30.06,29.96,10,10,10,15,7,19,T,5,,275
2014-3-28,40,33,26,36,32,24,89,85,66,29.94,29.71,29.61,10,9,4,22,12,25,0.04,7,Rain-Snow,195
2014-3-29,42,39,35,36,32,29,89,82,64,30.08,29.83,29.65,10,9,2,29,18,34,0.06,7,Rain-Snow,289
2014-3-30,42,38,34,31,29,25,89,70,48,30.16,30.07,29.92,10,10,9,22,13,27,0.00,6,,124
2014-3-31,40,39,37,36,33,29,93,82,63,29.88,29.63,29.51,10,8,4,52,31,63,0.13,8,Rain-Snow,129